Algona, Iowa
Current Conditions -  °F | °C
As of 9:55 AM on Friday 24 Oct 2014 (Local Time) from KAXA Reporting Station
Moderate Fog Moderate Fog  
Wind Chill: 57°   Ceiling: 200
Heat Index: 57°   Visibility: 0.25mi
Dew Point: 57°   Wind: 13mph
Humidity: 100%   Direction: 190°S
Pressure: 29.9"   Gusts: NA
Location:  43.07°N, 94.23°W
Report Text: KAXA 241455Z AUTO 19011KT 1/4SM FG OVC002 14/14 A2990 RMK AO2
Loading
Personal Weather Stations






























Interactive Weather Map
Tropical Storm Tracking
New forecast layout! Learn more

10-Day Weather Forecast

Advertisements
Track Severe Weather on mobile